createdAt,value
2022-08-26T00:01:44.756Z,94736.56
2022-08-26T00:04:12.641Z,94724.56
2022-08-26T00:06:42.697Z,94729.09
2022-08-26T00:09:16.030Z,94725.75
2022-08-26T00:11:44.351Z,94717.47
2022-08-26T00:14:12.019Z,94719.09
2022-08-26T00:16:40.935Z,94716.13
2022-08-26T00:19:14.644Z,94722.97
2022-08-26T00:21:41.778Z,94720.44
2022-08-26T00:24:09.062Z,94733.97
2022-08-26T00:26:36.396Z,94729.38
2022-08-26T00:29:04.080Z,94731.78
2022-08-26T00:31:32.203Z,94724.94
2022-08-26T00:33:59.850Z,94728.59
2022-08-26T00:36:29.685Z,94717.75
2022-08-26T00:38:58.443Z,94712.94
2022-08-26T00:41:25.755Z,94724.03
2022-08-26T00:43:53.090Z,94725.03
2022-08-26T00:46:33.731Z,94715.13
2022-08-26T00:49:12.142Z,94712.38
2022-08-26T00:51:54.817Z,94716.59
2022-08-26T00:54:26.956Z,94720.22
2022-08-26T00:57:15.901Z,94721.09
2022-08-26T00:59:46.692Z,94723.56
2022-08-26T01:02:21.140Z,94725.63
2022-08-26T01:04:55.751Z,94716.44
2022-08-26T01:07:30.207Z,94722.50
2022-08-26T01:10:01.355Z,94716.44
2022-08-26T01:12:31.972Z,94720.09
2022-08-26T01:14:59.408Z,94720.72
2022-08-26T01:17:26.478Z,94694.28
2022-08-26T01:20:18.755Z,94710.91
2022-08-26T01:22:55.870Z,94709.09
2022-08-26T01:25:26.196Z,94706.47
2022-08-26T01:27:57.882Z,94701.00
2022-08-26T01:30:29.029Z,94702.97
2022-08-26T01:32:59.455Z,94705.22
2022-08-26T01:35:27.816Z,94710.63
2022-08-26T01:37:57.570Z,94708.22
2022-08-26T01:40:32.170Z,94705.22
2022-08-26T01:43:01.983Z,94706.81
2022-08-26T01:45:33.459Z,94699.38
2022-08-26T01:48:04.210Z,94700.88
2022-08-26T01:50:33.546Z,94708.56
2022-08-26T01:53:06.152Z,94705.59
2022-08-26T01:55:34.522Z,94706.59
2022-08-26T01:58:07.590Z,94699.75
2022-08-26T02:00:35.928Z,94705.38
2022-08-26T02:03:17.564Z,94708.41
2022-08-26T02:06:09.305Z,94705.38
2022-08-26T02:08:45.785Z,94696.91
2022-08-26T02:11:14.020Z,94697.28
2022-08-26T02:13:51.775Z,94697.28
2022-08-26T02:16:24.616Z,94700.56
2022-08-26T02:18:54.071Z,94703.34
2022-08-26T02:21:21.501Z,94693.88
2022-08-26T02:23:52.581Z,94702.16
2022-08-26T02:26:27.049Z,94699.53
2022-08-26T02:29:02.819Z,94703.19
2022-08-26T02:31:29.847Z,94699.25
2022-08-26T02:34:07.874Z,94709.94
2022-08-26T02:36:38.596Z,94700.69
2022-08-26T02:39:07.811Z,94705.94
2022-08-26T02:41:35.393Z,94700.31
2022-08-26T02:44:11.784Z,94697.50
2022-08-26T02:46:39.476Z,94701.44
2022-08-26T02:49:07.208Z,94704.41
2022-08-26T02:51:34.223Z,94702.91
2022-08-26T02:54:01.217Z,94703.91
2022-08-26T02:56:29.509Z,94708.84
2022-08-26T02:58:57.295Z,94712.28
2022-08-26T03:01:30.135Z,94709.66
2022-08-26T03:03:57.908Z,94708.28
2022-08-26T03:06:25.267Z,94708.19
2022-08-26T03:08:52.959Z,94705.00
2022-08-26T03:11:19.994Z,94704.19
2022-08-26T03:13:46.927Z,94709.88
2022-08-26T03:16:15.348Z,94706.91
2022-08-26T03:18:42.846Z,94718.41
2022-08-26T03:21:19.961Z,94704.97
2022-08-26T03:23:47.446Z,94718.06
2022-08-26T03:26:16.017Z,94714.50
2022-08-26T03:29:02.151Z,94714.31
2022-08-26T03:31:30.009Z,94714.75
2022-08-26T03:33:59.779Z,94713.31
2022-08-26T03:36:27.194Z,94716.53
2022-08-26T03:38:54.622Z,94712.50
2022-08-26T03:41:21.996Z,94714.50
2022-08-26T03:43:51.065Z,94709.81
2022-08-26T03:46:20.211Z,94712.66
2022-08-26T03:48:48.044Z,94718.56
2022-08-26T03:51:19.608Z,94711.50
2022-08-26T03:53:48.406Z,94711.28
2022-08-26T03:56:15.651Z,94710.44
2022-08-26T03:58:44.578Z,94710.00
2022-08-26T04:01:16.222Z,94707.97
2022-08-26T04:04:00.325Z,94706.38
2022-08-26T04:06:36.877Z,94708.56
2022-08-26T04:09:10.479Z,94707.53
2022-08-26T04:11:39.674Z,94708.72
2022-08-26T04:14:10.294Z,94708.28
2022-08-26T04:16:37.226Z,94703.03
2022-08-26T04:19:04.554Z,94705.09
2022-08-26T04:21:31.527Z,94705.66
2022-08-26T04:23:58.609Z,94703.03
2022-08-26T04:26:26.190Z,94700.97
2022-08-26T04:28:55.369Z,94703.97
2022-08-26T04:31:23.099Z,94702.16
2022-08-26T04:33:50.956Z,94697.72
2022-08-26T04:36:20.218Z,94700.63
2022-08-26T04:38:48.034Z,94693.59
2022-08-26T04:41:16.896Z,94711.34
2022-08-26T04:43:45.605Z,94705.31
2022-08-26T04:46:16.595Z,94708.31
2022-08-26T04:48:43.615Z,94708.00
2022-08-26T04:51:10.899Z,94707.56
2022-08-26T04:53:38.311Z,94702.03
2022-08-26T04:56:05.649Z,94706.97
2022-08-26T04:58:33.909Z,94711.78
2022-08-26T05:01:01.878Z,94718.19
2022-08-26T05:03:30.608Z,94708.28
2022-08-26T05:05:58.654Z,94711.38
2022-08-26T05:08:26.235Z,94708.78
2022-08-26T05:10:56.595Z,94708.91
2022-08-26T05:13:27.115Z,94714.31
2022-08-26T05:15:54.722Z,94716.28
2022-08-26T05:18:30.471Z,94721.22
2022-08-26T05:20:57.730Z,94707.66
2022-08-26T05:23:25.380Z,94716.44
2022-08-26T05:25:58.997Z,94710.69
2022-08-26T05:28:28.550Z,94714.56
2022-08-26T05:30:56.350Z,94712.66
2022-08-26T05:33:23.880Z,94719.97
2022-08-26T05:35:50.979Z,94717.28
2022-08-26T05:38:22.232Z,94717.63
2022-08-26T05:40:52.610Z,94724.13
2022-08-26T05:43:21.299Z,94729.75
2022-08-26T05:45:50.506Z,94730.81
2022-08-26T05:48:22.741Z,94728.66
2022-08-26T05:50:52.619Z,94733.16
2022-08-26T05:53:21.643Z,94719.66
2022-08-26T05:55:51.182Z,94723.53
2022-08-26T05:58:21.108Z,94732.66
2022-08-26T06:01:05.701Z,94718.59
2022-08-26T06:03:35.850Z,94724.06
2022-08-26T06:06:13.074Z,94729.22
2022-08-26T06:08:40.139Z,94729.09
2022-08-26T06:11:18.422Z,94735.59
2022-08-26T06:13:46.582Z,94721.97
2022-08-26T06:16:16.161Z,94731.00
2022-08-26T06:18:45.806Z,94734.31
2022-08-26T06:21:17.416Z,94733.59
2022-08-26T06:24:03.987Z,94732.66
2022-08-26T06:26:31.269Z,94736.09
2022-08-26T06:28:58.862Z,94732.03
2022-08-26T06:31:27.472Z,94736.91
2022-08-26T06:33:56.922Z,94740.19
2022-08-26T06:36:28.171Z,94737.88
2022-08-26T06:38:56.958Z,94742.66
2022-08-26T06:41:23.825Z,94745.50
2022-08-26T06:43:52.837Z,94748.03
2022-08-26T06:46:22.034Z,94748.81
2022-08-26T06:48:49.237Z,94745.47
2022-08-26T06:51:23.640Z,94745.53
2022-08-26T06:53:52.318Z,94745.06
2022-08-26T06:56:24.662Z,94740.69
2022-08-26T06:58:51.966Z,94734.63
2022-08-26T07:01:24.595Z,94747.56
2022-08-26T07:03:54.255Z,94744.03
2022-08-26T07:06:25.512Z,94744.81
2022-08-26T07:08:55.114Z,94743.78
2022-08-26T07:11:22.089Z,94740.81
2022-08-26T07:13:51.345Z,94747.69
2022-08-26T07:16:18.986Z,94746.38
2022-08-26T07:18:48.565Z,94745.06
2022-08-26T07:21:18.326Z,94750.50
2022-08-26T07:23:46.493Z,94753.53
2022-08-26T07:26:20.457Z,94747.53
2022-08-26T07:28:50.674Z,94753.47
2022-08-26T07:31:23.971Z,94755.69
2022-08-26T07:33:51.606Z,94758.41
2022-08-26T07:36:21.094Z,94763.53
2022-08-26T07:38:48.702Z,94754.06
2022-08-26T07:41:18.831Z,94752.78
2022-08-26T07:43:46.296Z,94744.84
2022-08-26T07:46:26.960Z,94746.94
2022-08-26T07:48:57.458Z,94753.13
2022-08-26T07:51:25.586Z,94751.03
2022-08-26T07:53:53.378Z,94744.50
2022-08-26T07:56:23.479Z,94751.97
2022-08-26T07:58:52.103Z,94752.59
2022-08-26T08:01:21.818Z,94754.81
2022-08-26T08:03:51.834Z,94757.59
2022-08-26T08:06:27.204Z,94752.16
2022-08-26T08:08:56.256Z,94759.22
2022-08-26T08:11:24.397Z,94750.84
2022-08-26T08:13:52.339Z,94748.38
2022-08-26T08:16:28.520Z,94753.09
2022-08-26T08:18:59.602Z,94757.72
2022-08-26T08:21:27.619Z,94753.44
2022-08-26T08:23:56.733Z,94750.91
2022-08-26T08:26:24.961Z,94754.66
2022-08-26T08:28:58.057Z,94738.19
2022-08-26T08:31:56.044Z,94746.56
2022-08-26T08:34:19.465Z,94749.09
2022-08-26T08:36:48.950Z,94750.75
2022-08-26T08:39:17.576Z,94751.69
2022-08-26T08:41:54.798Z,94751.38
2022-08-26T08:46:58.454Z,94732.31
2022-08-26T08:49:26.143Z,94740.31
2022-08-26T08:52:11.370Z,94739.41
2022-08-26T08:54:38.747Z,94729.47
2022-08-26T08:57:21.575Z,94736.41
2022-08-26T09:00:02.640Z,94735.78
2022-08-26T09:02:44.596Z,94730.81
2022-08-26T09:05:21.652Z,94723.91
2022-08-26T09:08:16.374Z,94723.22
2022-08-26T09:10:52.517Z,94713.97
2022-08-26T09:13:25.139Z,94724.16
2022-08-26T09:15:56.674Z,94725.50
2022-08-26T09:18:51.670Z,94715.22
2022-08-26T09:21:25.579Z,94711.59
2022-08-26T09:23:56.742Z,94703.91
2022-08-26T09:26:30.721Z,94710.03
2022-08-26T09:29:03.864Z,94707.41
2022-08-26T09:31:35.329Z,94698.34
2022-08-26T09:34:22.319Z,94703.63
2022-08-26T09:36:58.012Z,94705.22
2022-08-26T09:39:27.781Z,94701.44
2022-08-26T09:42:19.468Z,94700.16
2022-08-26T09:45:10.633Z,94705.72
2022-08-26T09:48:01.318Z,94709.44
2022-08-26T09:51:03.786Z,94702.03
2022-08-26T09:53:49.664Z,94708.66
2022-08-26T09:56:25.464Z,94703.09
2022-08-26T09:58:56.852Z,94697.53
2022-08-26T10:01:23.814Z,94704.69
2022-08-26T10:03:51.651Z,94701.50
2022-08-26T10:06:20.973Z,94694.06
2022-08-26T10:08:54.934Z,94694.53
2022-08-26T10:11:35.402Z,94692.38
2022-08-26T10:14:08.066Z,94683.91
2022-08-26T10:17:22.503Z,94687.53
2022-08-26T10:19:57.841Z,94680.13
2022-08-26T10:22:48.510Z,94687.50
2022-08-26T10:25:23.320Z,94688.75
2022-08-26T10:28:12.154Z,94682.38
2022-08-26T10:30:47.224Z,94682.31
2022-08-26T10:33:18.666Z,94683.06
2022-08-26T10:35:51.777Z,94683.16
2022-08-26T10:38:27.448Z,94675.91
2022-08-26T10:41:11.707Z,94682.31
2022-08-26T10:43:51.816Z,94676.94
2022-08-26T10:46:28.601Z,94677.72
2022-08-26T10:49:12.390Z,94678.63
2022-08-26T10:51:55.223Z,94672.13
2022-08-26T10:54:54.531Z,94675.38
2022-08-26T10:57:45.901Z,94665.50
2022-08-26T11:00:31.323Z,94662.06
2022-08-26T11:03:09.462Z,94655.88
2022-08-26T11:06:18.050Z,94672.59
2022-08-26T11:08:53.319Z,94664.44
2022-08-26T11:11:42.131Z,94666.00
2022-08-26T11:14:32.170Z,94654.75
2022-08-26T11:17:11.577Z,94659.19
2022-08-26T11:20:00.792Z,94671.25
2022-08-26T11:22:47.860Z,94663.53
2022-08-26T11:25:19.307Z,94665.53
2022-08-26T11:27:56.844Z,94665.59
2022-08-26T11:30:24.990Z,94663.56
2022-08-26T11:32:56.545Z,94649.28
2022-08-26T11:35:24.412Z,94652.25
2022-08-26T11:37:57.566Z,94644.72
2022-08-26T11:40:38.669Z,94647.72
2022-08-26T11:43:11.993Z,94646.00
2022-08-26T11:45:45.691Z,94621.53
2022-08-26T11:48:22.226Z,94628.75
2022-08-26T11:50:59.326Z,94634.75
2022-08-26T11:53:27.974Z,94636.63
2022-08-26T11:55:58.465Z,94633.75
2022-08-26T11:58:27.817Z,94625.66
2022-08-26T12:01:00.823Z,94621.63
2022-08-26T12:03:52.253Z,94624.47
2022-08-26T12:06:33.535Z,94621.63
2022-08-26T12:09:05.604Z,94624.31
2022-08-26T12:11:35.217Z,94624.03
2022-08-26T12:14:18.348Z,94618.06
2022-08-26T12:16:45.790Z,94611.47
2022-08-26T12:19:32.656Z,94608.69
2022-08-26T12:22:36.481Z,94603.84
2022-08-26T12:25:09.568Z,94596.13
2022-08-26T12:27:42.899Z,94592.44
2022-08-26T12:30:19.185Z,94596.91
2022-08-26T12:32:57.285Z,94595.13
2022-08-26T12:35:26.155Z,94596.09
2022-08-26T12:37:55.471Z,94592.44
2022-08-26T12:40:31.269Z,94593.81
2022-08-26T12:43:00.861Z,94600.41
2022-08-26T12:45:37.876Z,94582.94
2022-08-26T12:48:25.578Z,94583.22
2022-08-26T12:50:53.425Z,94584.03
2022-08-26T12:53:20.334Z,94594.72
2022-08-26T12:56:00.356Z,94590.19
2022-08-26T12:58:33.561Z,94591.19
2022-08-26T13:01:06.761Z,94591.94
2022-08-26T13:03:43.783Z,94594.81
2022-08-26T13:06:20.789Z,94593.31
2022-08-26T13:09:07.882Z,94588.06
2022-08-26T13:11:40.669Z,94577.88
2022-08-26T13:14:18.471Z,94572.78
2022-08-26T13:16:52.235Z,94564.66
2022-08-26T13:19:22.261Z,94570.97
2022-08-26T13:21:55.471Z,94569.81
2022-08-26T13:24:22.339Z,94572.00
2022-08-26T13:26:50.240Z,94563.69
2022-08-26T13:29:18.646Z,94563.25
2022-08-26T13:31:46.591Z,94565.28
2022-08-26T13:34:21.118Z,94563.28
2022-08-26T13:36:49.829Z,94564.16
2022-08-26T13:39:17.485Z,94567.44
2022-08-26T13:41:44.769Z,94557.28
2022-08-26T13:44:12.140Z,94563.84
2022-08-26T13:46:39.841Z,94555.28
2022-08-26T13:49:07.562Z,94556.88
2022-08-26T13:51:34.537Z,94564.28
2022-08-26T13:54:01.619Z,94558.06
2022-08-26T13:56:30.025Z,94552.97
2022-08-26T13:59:01.377Z,94557.56
2022-08-26T14:01:30.028Z,94554.78
2022-08-26T14:03:57.413Z,94556.44
2022-08-26T14:06:25.191Z,94555.38
2022-08-26T14:08:52.379Z,94565.16
2022-08-26T14:11:19.943Z,94563.47
2022-08-26T14:13:47.043Z,94546.38
2022-08-26T14:16:25.017Z,94552.13
2022-08-26T14:18:52.408Z,94551.41
2022-08-26T14:21:19.383Z,94559.66
2022-08-26T14:23:46.600Z,94562.19
2022-08-26T14:26:19.013Z,94556.25
2022-08-26T14:28:55.649Z,94558.03
2022-08-26T14:31:24.010Z,94555.59
2022-08-26T14:33:50.888Z,94555.59
2022-08-26T14:36:31.485Z,94554.16
2022-08-26T14:39:07.356Z,94558.72
2022-08-26T14:41:44.988Z,94549.22
2022-08-26T14:44:15.251Z,94567.41
2022-08-26T14:46:45.963Z,94563.59
2022-08-26T14:49:13.769Z,94560.38
2022-08-26T14:51:41.366Z,94564.28
2022-08-26T14:54:12.693Z,94570.38
2022-08-26T14:56:54.185Z,94561.31
2022-08-26T14:59:25.611Z,94565.06
2022-08-26T15:01:53.639Z,94561.59
2022-08-26T15:04:21.765Z,94559.34
2022-08-26T15:06:49.850Z,94560.44
2022-08-26T15:09:17.082Z,94560.34
2022-08-26T15:11:44.726Z,94561.72
2022-08-26T15:14:19.942Z,94564.47
2022-08-26T15:16:52.773Z,94572.47
2022-08-26T15:19:20.918Z,94557.22
2022-08-26T15:21:47.966Z,94566.56
2022-08-26T15:24:16.670Z,94563.38
2022-08-26T15:26:44.425Z,94557.75
2022-08-26T15:29:11.821Z,94555.56
2022-08-26T15:31:39.047Z,94560.31
2022-08-26T15:34:16.391Z,94562.31
2022-08-26T15:36:46.613Z,94553.28
2022-08-26T15:39:15.858Z,94566.44
2022-08-26T15:41:43.691Z,94563.41
2022-08-26T15:44:11.526Z,94554.59
2022-08-26T15:46:39.364Z,94551.84
2022-08-26T15:49:07.263Z,94551.09
2022-08-26T15:51:45.279Z,94561.97
2022-08-26T15:54:14.045Z,94552.78
2022-08-26T15:56:41.059Z,94562.53
2022-08-26T15:59:11.994Z,94554.47
2022-08-26T16:01:39.369Z,94559.91
2022-08-26T16:04:07.198Z,94561.13
2022-08-26T16:06:36.908Z,94555.50
2022-08-26T16:09:04.602Z,94558.09
2022-08-26T16:11:31.697Z,94558.22
2022-08-26T16:13:58.689Z,94549.38
2022-08-26T16:16:26.550Z,94553.00
2022-08-26T16:18:53.611Z,94555.09
2022-08-26T16:21:24.569Z,94554.94
2022-08-26T16:23:51.957Z,94555.38
2022-08-26T16:26:24.168Z,94542.00
2022-08-26T16:28:51.456Z,94550.66
2022-08-26T16:31:18.754Z,94552.84
2022-08-26T16:33:46.458Z,94552.41
2022-08-26T16:36:14.961Z,94550.59
2022-08-26T16:38:42.390Z,94559.72
2022-08-26T16:41:09.410Z,94557.50
2022-08-26T16:43:36.457Z,94551.53
2022-08-26T16:46:07.102Z,94559.66
2022-08-26T16:48:35.495Z,94560.81
2022-08-26T16:51:02.846Z,94569.44
2022-08-26T16:53:29.808Z,94564.75
2022-08-26T16:55:56.927Z,94562.91
2022-08-26T16:58:23.834Z,94561.91
2022-08-26T17:00:50.991Z,94563.53
2022-08-26T17:03:21.086Z,94562.03
2022-08-26T17:05:48.015Z,94566.25
2022-08-26T17:08:27.410Z,94566.53
2022-08-26T17:10:56.154Z,94567.66
2022-08-26T17:13:34.886Z,94577.50
2022-08-26T17:16:05.147Z,94575.97
2022-08-26T17:18:33.618Z,94569.34
2022-08-26T17:21:08.101Z,94571.47
2022-08-26T17:23:36.767Z,94572.06
2022-08-26T17:26:05.115Z,94578.97
2022-08-26T17:28:32.461Z,94567.81
2022-08-26T17:30:59.920Z,94580.03
2022-08-26T17:33:27.820Z,94585.59
2022-08-26T17:35:55.109Z,94583.25
2022-08-26T17:38:22.497Z,94588.03
2022-08-26T17:40:49.919Z,94583.28
2022-08-26T17:43:17.847Z,94589.91
2022-08-26T17:45:44.857Z,94591.75
2022-08-26T17:48:12.517Z,94597.34
2022-08-26T17:50:41.918Z,94602.88
2022-08-26T17:53:12.700Z,94598.09
2022-08-26T17:55:46.861Z,94596.47
2022-08-26T17:58:15.007Z,94596.31
2022-08-26T18:00:51.129Z,94603.63
2022-08-26T18:03:19.374Z,94603.84
2022-08-26T18:05:52.302Z,94598.72
2022-08-26T18:08:20.237Z,94602.31
2022-08-26T18:10:47.745Z,94614.94
2022-08-26T18:13:17.674Z,94608.53
2022-08-26T18:15:47.347Z,94619.81
2022-08-26T18:18:15.492Z,94621.09
2022-08-26T18:20:44.592Z,94620.50
2022-08-26T18:23:12.535Z,94626.53
2022-08-26T18:25:42.133Z,94627.47
2022-08-26T18:28:10.016Z,94627.13
2022-08-26T18:30:37.104Z,94624.81
2022-08-26T18:33:04.308Z,94627.09
2022-08-26T18:35:31.301Z,94633.16
2022-08-26T18:38:11.311Z,94631.53
2022-08-26T18:40:41.212Z,94632.59
2022-08-26T18:43:09.139Z,94629.31
2022-08-26T18:45:36.169Z,94631.34
2022-08-26T18:48:03.928Z,94637.38
2022-08-26T18:50:31.115Z,94639.88
2022-08-26T18:52:58.142Z,94637.63
2022-08-26T18:55:25.540Z,94642.00
2022-08-26T18:57:52.661Z,94632.63
2022-08-26T19:00:19.734Z,94643.16
2022-08-26T19:02:51.847Z,94640.28
2022-08-26T19:05:19.548Z,94639.25
2022-08-26T19:07:47.976Z,94639.97
2022-08-26T19:10:15.145Z,94642.44
2022-08-26T19:12:42.497Z,94648.69
2022-08-26T19:15:11.445Z,94651.16
2022-08-26T19:17:38.464Z,94653.13
2022-08-26T19:20:05.876Z,94652.00
2022-08-26T19:22:32.914Z,94648.66
2022-08-26T19:24:59.978Z,94648.03
2022-08-26T19:27:27.182Z,94654.84
2022-08-26T19:29:54.184Z,94658.41
2022-08-26T19:32:24.392Z,94653.84
2022-08-26T19:34:52.340Z,94655.69
2022-08-26T19:37:20.349Z,94654.31
2022-08-26T19:39:47.969Z,94652.94
2022-08-26T19:42:15.020Z,94657.91
2022-08-26T19:45:00.753Z,94652.56
2022-08-26T19:47:27.714Z,94656.53
2022-08-26T19:49:56.201Z,94661.16
2022-08-26T19:52:30.043Z,94662.88
2022-08-26T19:54:57.934Z,94667.13
2022-08-26T19:57:25.110Z,94662.34
2022-08-26T19:59:52.052Z,94667.63
2022-08-26T20:02:19.436Z,94648.28
2022-08-26T20:04:46.449Z,94666.00
2022-08-26T20:07:18.063Z,94661.28
2022-08-26T20:09:47.023Z,94652.28
2022-08-26T20:12:15.651Z,94662.16
2022-08-26T20:14:43.588Z,94659.81
2022-08-26T20:17:10.871Z,94664.97
2022-08-26T20:19:56.459Z,94663.84
2022-08-26T20:22:23.519Z,94664.00
2022-08-26T20:24:50.606Z,94662.03
2022-08-26T20:27:17.529Z,94660.66
2022-08-26T20:29:44.543Z,94658.66
2022-08-26T20:32:12.299Z,94669.72
2022-08-26T20:34:40.121Z,94651.22
2022-08-26T20:37:08.610Z,94656.03
2022-08-26T20:39:35.844Z,94658.88
2022-08-26T20:42:03.435Z,94641.78
2022-08-26T20:44:30.644Z,94661.78
2022-08-26T20:46:59.306Z,94664.97
2022-08-26T20:49:27.843Z,94667.53
2022-08-26T20:51:55.396Z,94669.94
2022-08-26T20:54:28.254Z,94665.69
2022-08-26T20:56:56.946Z,94663.63
2022-08-26T20:59:24.927Z,94673.00
2022-08-26T21:01:52.253Z,94679.44
2022-08-26T21:04:22.847Z,94674.75
2022-08-26T21:06:52.491Z,94685.25
2022-08-26T21:09:24.780Z,94683.28
2022-08-26T21:11:52.358Z,94675.06
2022-08-26T21:14:20.661Z,94657.00
2022-08-26T21:16:47.820Z,94668.78
2022-08-26T21:19:18.190Z,94669.25
2022-08-26T21:21:46.189Z,94681.00
2022-08-26T21:24:13.574Z,94686.63
2022-08-26T21:26:40.591Z,94690.75
2022-08-26T21:29:09.979Z,94689.69
2022-08-26T21:31:42.232Z,94686.34
2022-08-26T21:34:12.229Z,94680.75
2022-08-26T21:36:39.165Z,94679.25
2022-08-26T21:39:11.287Z,94681.66
2022-08-26T21:41:39.845Z,94683.25
2022-08-26T21:44:07.228Z,94682.00
2022-08-26T21:46:37.541Z,94672.97
2022-08-26T21:49:07.689Z,94691.53
2022-08-26T21:51:37.425Z,94692.78
2022-08-26T21:54:10.537Z,94693.22
2022-08-26T21:56:41.015Z,94702.22
2022-08-26T21:59:08.755Z,94708.72
2022-08-26T22:01:38.015Z,94703.31
2022-08-26T22:04:07.246Z,94698.38
2022-08-26T22:06:38.990Z,94694.78
2022-08-26T22:09:05.889Z,94693.38
2022-08-26T22:11:32.843Z,94699.06
2022-08-26T22:13:59.741Z,94695.66
2022-08-26T22:16:28.822Z,94694.44
2022-08-26T22:18:55.925Z,94697.75
2022-08-26T22:21:25.055Z,94698.50
2022-08-26T22:23:56.124Z,94695.22
2022-08-26T22:26:29.770Z,94697.59
2022-08-26T22:28:59.333Z,94700.09
2022-08-26T22:31:36.040Z,94701.03
2022-08-26T22:34:07.790Z,94691.53
2022-08-26T22:36:35.353Z,94691.97
2022-08-26T22:39:02.478Z,94699.25
2022-08-26T22:41:29.441Z,94695.88
2022-08-26T22:44:02.781Z,94698.38
2022-08-26T22:46:29.862Z,94710.47
2022-08-26T22:48:56.863Z,94700.56
2022-08-26T22:51:23.828Z,94706.22
2022-08-26T22:53:50.822Z,94712.38
2022-08-26T22:56:19.259Z,94707.94
2022-08-26T22:58:46.387Z,94710.47
2022-08-26T23:01:13.981Z,94707.41
2022-08-26T23:03:41.461Z,94709.00
2022-08-26T23:06:10.575Z,94705.00
2022-08-26T23:08:38.983Z,94703.59
2022-08-26T23:11:10.645Z,94706.38
2022-08-26T23:13:38.260Z,94702.38
2022-08-26T23:16:09.358Z,94705.69
2022-08-26T23:18:36.875Z,94695.63
2022-08-26T23:21:04.187Z,94694.44
2022-08-26T23:23:31.279Z,94700.34
2022-08-26T23:25:58.609Z,94702.75
2022-08-26T23:28:26.586Z,94689.78
2022-08-26T23:30:54.243Z,94699.16
2022-08-26T23:33:21.576Z,94687.66
2022-08-26T23:35:48.679Z,94695.81
2022-08-26T23:38:16.715Z,94706.47
2022-08-26T23:40:43.654Z,94696.41
2022-08-26T23:43:11.725Z,94708.56
2022-08-26T23:45:39.047Z,94703.84
2022-08-26T23:48:06.622Z,94704.94
2022-08-26T23:50:52.584Z,94711.63
2022-08-26T23:53:22.853Z,94700.19
2022-08-26T23:55:51.643Z,94699.19
2022-08-26T23:58:20.567Z,94698.84
